createdAt,value
2022-09-28T16:13:24.141Z,99348.00
2022-09-28T16:16:00.023Z,99349.84
2022-09-28T16:18:32.603Z,99357.34
2022-09-28T16:21:34.286Z,99359.53
2022-09-28T16:24:03.451Z,99363.75
2022-09-28T16:26:37.504Z,99360.66
2022-09-28T16:29:28.841Z,99354.59
2022-09-28T16:31:57.614Z,99366.34
2022-09-28T16:34:28.899Z,99358.41
2022-09-28T16:36:57.776Z,99365.75
2022-09-28T16:39:26.256Z,99366.59
2022-09-28T16:42:01.948Z,99368.47
2022-09-28T16:44:35.117Z,99366.81
2022-09-28T16:47:04.333Z,99361.34
2022-09-28T16:49:33.388Z,99363.22
2022-09-28T16:52:02.529Z,99372.25
2022-09-28T16:54:48.327Z,99377.72
2022-09-28T16:57:17.548Z,99373.31
2022-09-28T16:59:47.548Z,99376.03
2022-09-28T17:05:10.390Z,99374.38
2022-09-28T17:15:56.294Z,99330.22
2022-09-28T17:18:25.405Z,99346.84
2022-09-28T17:20:58.091Z,99358.25
2022-09-28T17:23:27.195Z,99381.91
2022-09-28T17:25:55.995Z,99382.94
2022-09-28T17:28:29.912Z,99386.38
2022-09-28T17:31:00.300Z,99388.06
2022-09-28T17:33:29.389Z,99393.44
2022-09-28T17:36:04.827Z,99397.03
2022-09-28T17:38:34.681Z,99390.84
2022-09-28T17:41:03.532Z,99406.66
2022-09-28T17:43:32.487Z,99398.72
2022-09-28T17:46:03.791Z,99403.50
2022-09-28T17:48:34.566Z,99410.53
2022-09-28T17:51:03.973Z,99409.28
2022-09-28T17:53:32.839Z,99416.72
2022-09-28T17:56:01.804Z,99417.28
2022-09-28T17:58:30.383Z,99416.41
2022-09-28T18:00:59.125Z,99431.03
2022-09-28T18:03:29.233Z,99420.06
2022-09-28T18:06:04.578Z,99418.66
2022-09-28T18:08:33.857Z,99424.13
2022-09-28T18:11:03.056Z,99421.28
2022-09-28T18:13:31.908Z,99417.34
2022-09-28T18:16:01.160Z,99429.59
2022-09-28T18:18:33.650Z,99432.69
2022-09-28T18:21:02.891Z,99435.06
2022-09-28T18:23:31.683Z,99437.72
2022-09-28T18:26:00.581Z,99434.75
2022-09-28T18:28:29.703Z,99443.59
2022-09-28T18:30:59.029Z,99449.19
2022-09-28T18:33:27.713Z,99451.38
2022-09-28T18:35:58.074Z,99451.09
2022-09-28T18:38:26.845Z,99457.06
2022-09-28T18:40:56.663Z,99456.03
2022-09-28T18:43:25.473Z,99456.56
2022-09-28T18:45:56.269Z,99456.56
2022-09-28T18:48:28.198Z,99452.59
2022-09-28T18:50:59.823Z,99459.31
2022-09-28T18:53:29.160Z,99461.25
2022-09-28T18:56:00.159Z,99463.81
2022-09-28T18:58:28.952Z,99471.41
2022-09-28T19:01:13.556Z,99472.25
2022-09-28T19:03:47.047Z,99479.06
2022-09-28T19:06:18.703Z,99478.44
2022-09-28T19:08:54.091Z,99476.63
2022-09-28T19:11:23.854Z,99484.22
2022-09-28T19:13:56.386Z,99486.69
2022-09-28T19:16:26.422Z,99490.38
2022-09-28T19:18:57.198Z,99491.75
2022-09-28T19:21:28.186Z,99486.09
2022-09-28T19:23:57.296Z,99498.28
2022-09-28T19:26:29.255Z,99494.44
2022-09-28T19:28:59.832Z,99498.34
2022-09-28T19:31:29.676Z,99501.03
2022-09-28T19:33:58.520Z,99502.72
2022-09-28T19:36:29.943Z,99507.31
2022-09-28T19:39:03.340Z,99514.34
2022-09-28T19:41:43.525Z,99510.00
2022-09-28T19:44:24.864Z,99510.97
2022-09-28T19:46:57.542Z,99515.72
2022-09-28T19:49:33.142Z,99512.44
2022-09-28T19:52:13.727Z,99515.63
2022-09-28T19:54:45.069Z,99510.56
2022-09-28T19:57:16.260Z,99515.63
2022-09-28T19:59:49.465Z,99513.94
2022-09-28T20:02:21.585Z,99521.94
2022-09-28T20:04:50.421Z,99511.75
2022-09-28T20:07:20.845Z,99529.63
2022-09-28T20:09:49.522Z,99526.56
2022-09-28T20:12:18.293Z,99531.66
2022-09-28T20:14:47.144Z,99538.63
2022-09-28T20:17:15.926Z,99536.13
2022-09-28T20:19:44.660Z,99534.91
2022-09-28T20:22:13.471Z,99539.41
2022-09-28T20:24:43.636Z,99544.53
2022-09-28T20:27:12.675Z,99545.41
2022-09-28T20:29:43.181Z,99547.56
2022-09-28T20:32:12.454Z,99547.19
2022-09-28T20:34:41.157Z,99541.59
2022-09-28T20:37:09.873Z,99551.94
2022-09-28T20:39:41.559Z,99554.03
2022-09-28T20:42:15.929Z,99548.84
2022-09-28T20:44:45.081Z,99544.50
2022-09-28T20:47:13.781Z,99552.38
2022-09-28T20:49:42.576Z,99556.03
2022-09-28T20:52:11.319Z,99558.47
2022-09-28T20:54:40.226Z,99556.63
2022-09-28T20:57:17.758Z,99556.91
2022-09-28T20:59:53.800Z,99562.25
2022-09-28T21:02:23.865Z,99555.38
2022-09-28T21:04:52.699Z,99559.44
2022-09-28T21:07:21.484Z,99558.47
2022-09-28T21:09:50.673Z,99565.06
2022-09-28T21:12:19.599Z,99570.75
2022-09-28T21:14:49.765Z,99565.78
2022-09-28T21:17:18.527Z,99558.47
2022-09-28T21:19:47.532Z,99569.31
2022-09-28T21:22:16.160Z,99567.63
2022-09-28T21:24:44.950Z,99575.59
2022-09-28T21:27:13.695Z,99572.91
2022-09-28T21:29:42.520Z,99565.16
2022-09-28T21:32:12.812Z,99572.81
2022-09-28T21:34:41.610Z,99573.91
2022-09-28T21:37:10.434Z,99577.44
2022-09-28T21:39:39.181Z,99575.88
2022-09-28T21:42:08.276Z,99573.56
2022-09-28T21:44:37.382Z,99574.84
2022-09-28T21:47:06.351Z,99578.50
2022-09-28T21:49:36.469Z,99577.41
2022-09-28T21:52:05.417Z,99579.44
2022-09-28T21:54:37.378Z,99583.03
2022-09-28T21:57:06.532Z,99570.69
2022-09-28T21:59:35.376Z,99582.47
2022-09-28T22:02:05.909Z,99592.09
2022-09-28T22:04:36.501Z,99583.88
2022-09-28T22:07:05.333Z,99584.47
2022-09-28T22:09:34.112Z,99589.19
2022-09-28T22:12:03.307Z,99592.19
2022-09-28T22:14:32.117Z,99601.34
2022-09-28T22:17:00.802Z,99594.72
2022-09-28T22:19:29.774Z,99595.09
2022-09-28T22:21:59.942Z,99597.56
2022-09-28T22:24:28.890Z,99604.09
2022-09-28T22:26:57.676Z,99591.06
2022-09-28T22:29:26.534Z,99597.56
2022-09-28T22:32:00.235Z,99600.22
2022-09-28T22:34:30.979Z,99594.38
2022-09-28T22:37:03.100Z,99597.09
2022-09-28T22:39:36.687Z,99599.88
2022-09-28T22:42:06.609Z,99597.59
2022-09-28T22:44:37.841Z,99608.78
2022-09-28T22:47:07.073Z,99613.38
2022-09-28T22:49:35.830Z,99613.09
2022-09-28T22:52:06.542Z,99617.34
2022-09-28T22:54:35.438Z,99613.00
2022-09-28T22:57:04.509Z,99610.44
2022-09-28T22:59:33.494Z,99614.41
2022-09-28T23:02:02.234Z,99614.75
2022-09-28T23:04:32.095Z,99617.13
2022-09-28T23:07:01.008Z,99618.16
2022-09-28T23:09:31.204Z,99624.56
2022-09-28T23:12:00.116Z,99625.41
2022-09-28T23:14:29.093Z,99625.69
2022-09-28T23:16:57.985Z,99629.25
2022-09-28T23:19:26.804Z,99632.03
2022-09-28T23:21:55.387Z,99631.53
2022-09-28T23:24:24.135Z,99627.56
2022-09-28T23:26:54.370Z,99635.06
2022-09-28T23:29:23.375Z,99638.25
2022-09-28T23:31:55.255Z,99641.88
2022-09-28T23:34:23.947Z,99644.31
2022-09-28T23:36:54.631Z,99644.59
2022-09-28T23:39:23.230Z,99640.25
2022-09-28T23:41:53.986Z,99639.25
2022-09-28T23:44:23.196Z,99639.00
2022-09-28T23:46:54.867Z,99635.47
2022-09-28T23:49:23.541Z,99635.34
2022-09-28T23:51:52.585Z,99639.97
2022-09-28T23:54:21.234Z,99638.88
2022-09-28T23:56:49.975Z,99642.88
2022-09-28T23:59:20.286Z,99645.09
